Time;durP1;ratioP1;P1;durP2;ratioP2;P2;SDS_P1;SDS_P2;PMS_P1;PMS_P2;Temp;Humidity;BMP_temperature;BMP_pressure;BME280_temperature;BME280_humidity;BME280_pressure;Samples;Min_cycle;Max_cycle;Signal;HPM_P1;HPM_P2
2023/08/21 00:01:41;;;;;;;10.13;3.53;;;18.00;89.20;;;;;;5024605;28;20073;-76
2023/08/21 00:04:08;;;;;;;11.90;3.25;;;18.00;89.40;;;;;;5023044;28;20048;-75
2023/08/21 00:06:35;;;;;;;9.95;2.90;;;18.00;89.50;;;;;;5024107;28;20061;-75
2023/08/21 00:09:02;;;;;;;9.07;3.70;;;17.90;89.70;;;;;;5049462;28;20163;-76
2023/08/21 00:11:29;;;;;;;8.75;3.22;;;17.90;89.90;;;;;;5031453;28;20057;-76
2023/08/21 00:13:56;;;;;;;11.13;3.15;;;17.80;90.00;;;;;;5027533;28;20060;-76
2023/08/21 00:16:23;;;;;;;7.25;3.60;;;17.80;90.50;;;;;;5027617;28;20502;-76
2023/08/21 00:18:50;;;;;;;9.73;3.45;;;17.70;90.70;;;;;;5021631;28;20060;-76
2023/08/21 00:21:17;;;;;;;6.95;3.45;;;17.70;91.00;;;;;;5029947;28;20077;-75
2023/08/21 00:23:43;;;;;;;13.85;3.83;;;17.70;90.90;;;;;;5016352;28;20049;-76
2023/08/21 00:26:10;;;;;;;8.55;3.25;;;17.60;91.40;;;;;;5032319;28;20069;-76
2023/08/21 00:28:37;;;;;;;10.45;3.50;;;17.60;91.70;;;;;;5027366;28;20057;-76
2023/08/21 00:31:06;;;;;;;8.10;3.50;;;17.50;92.20;;;;;;5033939;28;20516;-76
2023/08/21 00:33:33;;;;;;;8.18;4.03;;;17.50;92.30;;;;;;5036210;28;20041;-75
2023/08/21 00:36:00;;;;;;;6.80;3.70;;;17.50;91.90;;;;;;5023432;28;20053;-76
2023/08/21 00:38:27;;;;;;;12.18;3.95;;;17.40;92.10;;;;;;5030941;28;20053;-76
2023/08/21 00:40:53;;;;;;;11.70;3.75;;;17.40;92.50;;;;;;5029135;28;20481;-75
2023/08/21 00:43:21;;;;;;;8.35;3.65;;;17.40;92.90;;;;;;5028493;28;20053;-76
2023/08/21 00:45:50;;;;;;;8.88;3.47;;;17.30;92.90;;;;;;5020860;28;20099;-76
2023/08/21 00:48:18;;;;;;;7.90;3.38;;;17.30;93.40;;;;;;5024032;28;20068;-76
2023/08/21 00:50:45;;;;;;;11.73;3.65;;;17.30;93.00;;;;;;5031168;28;20056;-76
2023/08/21 00:53:13;;;;;;;20.55;4.85;;;17.30;93.10;;;;;;5027074;28;20049;-75
2023/08/21 00:55:41;;;;;;;11.80;4.45;;;17.20;93.10;;;;;;5030911;28;20061;-76
2023/08/21 00:58:11;;;;;;;12.65;4.32;;;17.20;93.30;;;;;;5029712;28;20124;-76
2023/08/21 01:00:39;;;;;;;13.07;3.80;;;17.10;93.60;;;;;;5025688;28;20049;-76
2023/08/21 01:03:06;;;;;;;7.53;3.80;;;17.10;93.90;;;;;;5032213;28;20080;-76
2023/08/21 01:05:35;;;;;;;11.25;3.97;;;17.00;93.80;;;;;;5028459;28;20045;-75
2023/08/21 01:08:10;;;;;;;11.88;4.28;;;17.00;93.90;;;;;;5034772;28;20041;-75
2023/08/21 01:10:51;;;;;;;9.65;4.75;;;17.00;94.20;;;;;;5020473;28;20058;-76
2023/08/21 01:13:45;;;;;;;17.15;4.05;;;16.90;94.60;;;;;;5010456;28;20055;-76
2023/08/21 01:16:14;;;;;;;11.13;4.13;;;16.90;94.80;;;;;;5025225;28;20077;-76
2023/08/21 01:18:43;;;;;;;10.85;3.92;;;16.80;94.90;;;;;;5015115;28;20049;-76
2023/08/21 01:21:11;;;;;;;6.40;3.80;;;16.80;95.00;;;;;;5019801;28;20041;-76
2023/08/21 01:23:38;;;;;;;9.35;3.97;;;16.80;95.10;;;;;;5016115;28;20184;-76
2023/08/21 01:26:05;;;;;;;12.68;4.30;;;16.80;95.30;;;;;;5026228;28;20081;-76
2023/08/21 01:28:33;;;;;;;10.30;4.00;;;16.80;95.00;;;;;;5037508;28;20061;-76
2023/08/21 01:31:09;;;;;;;9.65;4.32;;;16.80;95.00;;;;;;5038367;28;20504;-76
2023/08/21 01:33:44;;;;;;;7.97;4.30;;;16.80;95.30;;;;;;5026363;28;20144;-76
2023/08/21 01:36:11;;;;;;;19.13;5.28;;;16.80;95.40;;;;;;5026444;28;20077;-76
2023/08/21 01:38:38;;;;;;;14.35;4.57;;;16.90;95.30;;;;;;5027827;28;20128;-76
2023/08/21 01:41:05;;;;;;;10.70;4.10;;;16.90;95.20;;;;;;5026865;28;20129;-76
2023/08/21 01:43:32;;;;;;;11.50;4.35;;;17.00;94.80;;;;;;5039495;28;20053;-76
2023/08/21 01:46:01;;;;;;;12.60;4.68;;;17.00;94.80;;;;;;5018775;28;20073;-76
2023/08/21 01:48:28;;;;;;;7.45;4.05;;;17.10;94.80;;;;;;5015397;28;20050;-76
2023/08/21 01:50:55;;;;;;;7.18;4.20;;;17.10;94.80;;;;;;5024840;28;20050;-76
2023/08/21 01:53:22;;;;;;;12.73;3.85;;;17.10;94.60;;;;;;5026993;28;20056;-76
2023/08/21 01:55:48;;;;;;;7.22;3.78;;;17.10;94.80;;;;;;5028828;28;20580;-76
2023/08/21 01:58:15;;;;;;;10.40;3.40;;;17.10;94.90;;;;;;5020860;28;20134;-76
2023/08/21 02:00:46;;;;;;;14.93;3.70;;;17.10;94.70;;;;;;5020206;28;20045;-77
2023/08/21 02:03:13;;;;;;;8.40;3.90;;;17.10;94.60;;;;;;5030023;28;20728;-76
2023/08/21 02:05:41;;;;;;;12.10;4.63;;;17.00;94.50;;;;;;5026473;28;20510;-76
2023/08/21 02:08:11;;;;;;;10.10;4.20;;;17.00;94.60;;;;;;5036354;28;20617;-76
2023/08/21 02:10:50;;;;;;;7.70;4.32;;;17.00;94.90;;;;;;5025034;28;20057;-76
2023/08/21 02:13:18;;;;;;;10.98;4.10;;;17.00;95.40;;;;;;5019475;28;20064;-76
2023/08/21 02:15:45;;;;;;;10.85;4.32;;;17.00;95.30;;;;;;5028185;28;20498;-76
2023/08/21 02:18:12;;;;;;;10.52;4.50;;;17.10;95.30;;;;;;5028230;28;20053;-76
2023/08/21 02:20:39;;;;;;;12.88;4.72;;;17.00;95.20;;;;;;5027519;28;20046;-76
2023/08/21 02:23:06;;;;;;;12.13;4.10;;;17.00;95.60;;;;;;5033695;28;20596;-76
2023/08/21 02:25:33;;;;;;;11.85;4.80;;;17.00;95.80;;;;;;5037753;28;20053;-75
2023/08/21 02:28:01;;;;;;;17.42;4.13;;;16.90;95.80;;;;;;5032972;28;20050;-76
2023/08/21 02:30:28;;;;;;;10.27;4.18;;;16.90;96.00;;;;;;5037158;28;20068;-76
2023/08/21 02:32:55;;;;;;;10.48;4.30;;;17.00;95.70;;;;;;5031423;28;20064;-77
2023/08/21 02:35:22;;;;;;;10.23;4.05;;;17.00;95.40;;;;;;5037889;28;20067;-76
2023/08/21 02:37:49;;;;;;;10.82;4.10;;;17.00;95.10;;;;;;5026251;28;20082;-76
2023/08/21 02:40:16;;;;;;;10.52;4.28;;;17.10;95.00;;;;;;5028444;28;20484;-76
2023/08/21 02:42:43;;;;;;;8.52;4.22;;;17.10;94.50;;;;;;5029943;28;20073;-76
2023/08/21 02:45:10;;;;;;;10.95;4.88;;;17.10;94.20;;;;;;5033441;28;20049;-76
2023/08/21 02:47:38;;;;;;;9.38;4.45;;;17.20;94.40;;;;;;5035358;28;20493;-76
2023/08/21 02:50:06;;;;;;;9.43;4.22;;;17.20;94.60;;;;;;5029655;28;20999;-76
2023/08/21 02:52:34;;;;;;;15.07;4.43;;;17.10;94.50;;;;;;5027711;28;20132;-76
2023/08/21 02:55:03;;;;;;;11.02;4.30;;;17.20;94.60;;;;;;5030049;28;20417;-76
2023/08/21 02:57:30;;;;;;;11.43;4.60;;;17.20;95.00;;;;;;5032768;28;20084;-76
2023/08/21 02:59:57;;;;;;;9.88;3.72;;;17.10;94.90;;;;;;5031981;28;20519;-76
2023/08/21 03:02:24;;;;;;;10.10;3.97;;;17.10;94.90;;;;;;5028075;28;20084;-76
2023/08/21 03:04:51;;;;;;;13.18;4.32;;;17.10;94.50;;;;;;5033405;28;20053;-76
2023/08/21 03:07:18;;;;;;;10.15;4.20;;;17.00;94.50;;;;;;5033379;28;20070;-76
2023/08/21 03:09:47;;;;;;;10.38;4.45;;;17.00;94.50;;;;;;5042067;28;20450;-76
2023/08/21 03:12:14;;;;;;;13.85;5.07;;;17.00;94.60;;;;;;5029266;28;20063;-76
2023/08/21 03:14:41;;;;;;;8.25;3.75;;;17.00;94.80;;;;;;5034744;28;20053;-76
2023/08/21 03:17:08;;;;;;;10.65;3.80;;;17.00;94.70;;;;;;5028628;28;20056;-76
2023/08/21 03:19:35;;;;;;;10.88;3.42;;;17.00;94.90;;;;;;5037382;28;20059;-76
2023/08/21 03:22:02;;;;;;;6.63;4.43;;;16.90;95.00;;;;;;5036823;28;20629;-76
2023/08/21 03:24:30;;;;;;;8.80;4.10;;;16.90;95.20;;;;;;5034449;28;20056;-76
2023/08/21 03:26:57;;;;;;;11.55;4.25;;;16.90;95.70;;;;;;5029721;28;20565;-76
2023/08/21 03:29:23;;;;;;;7.28;3.88;;;16.80;95.80;;;;;;5035803;28;20048;-76
2023/08/21 03:31:56;;;;;;;10.88;4.20;;;16.80;95.50;;;;;;5026970;28;20164;-76
2023/08/21 03:34:23;;;;;;;13.45;4.30;;;16.70;95.30;;;;;;5045558;28;20133;-76
2023/08/21 03:36:50;;;;;;;9.75;4.45;;;16.70;95.50;;;;;;5027717;28;20052;-76
2023/08/21 03:39:17;;;;;;;9.93;4.20;;;16.60;95.50;;;;;;5022118;28;20688;-76
2023/08/21 03:41:44;;;;;;;9.07;4.38;;;16.50;96.50;;;;;;5026321;28;20164;-76
2023/08/21 03:44:11;;;;;;;9.38;4.25;;;16.50;96.80;;;;;;5026135;28;20073;-76
2023/08/21 03:46:37;;;;;;;8.32;4.40;;;16.40;97.00;;;;;;5028854;28;20073;-77
2023/08/21 03:49:04;;;;;;;10.07;5.00;;;16.30;97.20;;;;;;5028047;28;20041;-76
2023/08/21 03:51:31;;;;;;;12.38;4.50;;;16.30;97.80;;;;;;5031095;28;20067;-76
2023/08/21 03:53:58;;;;;;;12.10;4.57;;;16.30;97.80;;;;;;5023398;28;20081;-76
2023/08/21 03:56:25;;;;;;;12.10;4.80;;;16.30;97.90;;;;;;5033109;28;20065;-76
2023/08/21 03:58:52;;;;;;;16.88;5.07;;;16.20;98.10;;;;;;5025404;28;20454;-76
2023/08/21 04:01:19;;;;;;;12.10;4.63;;;16.20;98.10;;;;;;5026666;28;20048;-76
2023/08/21 04:03:46;;;;;;;14.20;5.25;;;16.20;98.50;;;;;;5036071;28;20059;-76
2023/08/21 04:06:13;;;;;;;14.88;5.03;;;16.20;98.80;;;;;;5032284;28;20045;-76
2023/08/21 04:08:40;;;;;;;13.15;5.18;;;16.20;98.80;;;;;;5026278;28;20153;-76
2023/08/21 04:11:06;;;;;;;13.45;5.47;;;16.20;98.80;;;;;;5026611;28;20144;-76
2023/08/21 04:13:33;;;;;;;19.13;6.60;;;16.20;99.10;;;;;;5026696;28;20059;-75
2023/08/21 04:16:00;;;;;;;12.00;5.43;;;16.20;99.50;;;;;;5025926;28;20115;-76
2023/08/21 04:18:27;;;;;;;22.67;5.47;;;16.20;99.50;;;;;;5029055;28;20049;-76
2023/08/21 04:21:06;;;;;;;12.43;5.25;;;16.20;99.40;;;;;;5026232;28;20045;-75
2023/08/21 04:23:33;;;;;;;19.35;5.55;;;16.20;99.40;;;;;;5027253;28;20056;-76
2023/08/21 04:26:04;;;;;;;24.50;5.50;;;16.20;99.30;;;;;;5024397;28;20049;-76
2023/08/21 04:28:32;;;;;;;15.95;5.43;;;16.10;99.30;;;;;;5027910;28;20107;-76
2023/08/21 04:30:59;;;;;;;11.82;5.72;;;16.10;99.90;;;;;;5017187;28;20128;-76
2023/08/21 04:33:28;;;;;;;16.00;5.95;;;16.10;99.90;;;;;;5016162;28;20058;-76
2023/08/21 04:35:56;;;;;;;15.63;6.90;;;16.10;99.90;;;;;;5033070;28;20086;-76
2023/08/21 04:38:23;;;;;;;20.30;5.88;;;16.10;100.00;;;;;;5026846;28;20061;-77
2023/08/21 04:40:51;;;;;;;12.50;6.53;;;16.10;100.00;;;;;;5029221;28;20049;-76
2023/08/21 04:43:18;;;;;;;26.48;6.55;;;16.10;100.00;;;;;;5042624;28;20168;-76
2023/08/21 04:45:49;;;;;;;22.25;5.68;;;16.10;100.00;;;;;;5032108;28;20134;-77
2023/08/21 04:48:16;;;;;;;15.52;5.97;;;16.10;100.00;;;;;;5024689;28;20056;-77
2023/08/21 04:50:43;;;;;;;18.23;6.15;;;16.10;100.00;;;;;;5030316;28;20144;-77
2023/08/21 04:53:10;;;;;;;26.30;6.63;;;16.20;100.00;;;;;;5024490;28;20049;-76
2023/08/21 04:55:40;;;;;;;14.68;6.55;;;16.20;100.00;;;;;;5037225;28;20069;-76
2023/08/21 04:58:07;;;;;;;28.67;5.95;;;16.20;100.00;;;;;;5021138;28;20045;-76
2023/08/21 05:00:34;;;;;;;15.65;6.35;;;16.20;99.80;;;;;;5010965;28;20073;-76
2023/08/21 05:03:02;;;;;;;14.95;6.60;;;16.20;99.90;;;;;;5024688;28;20045;-76
2023/08/21 05:05:29;;;;;;;25.45;7.07;;;16.30;100.00;;;;;;5032076;28;20118;-77
2023/08/21 05:07:56;;;;;;;24.58;7.45;;;16.40;100.00;;;;;;5028315;28;20922;-76
2023/08/21 05:10:22;;;;;;;12.63;6.53;;;16.40;100.00;;;;;;5020272;28;20099;-74
2023/08/21 05:12:49;;;;;;;21.15;7.18;;;16.50;100.00;;;;;;5019219;28;20108;-75
2023/08/21 05:15:16;;;;;;;32.40;8.07;;;16.50;100.00;;;;;;5027269;28;20048;-77
2023/08/21 05:17:43;;;;;;;22.02;6.93;;;16.60;100.00;;;;;;5037736;28;20051;-73
2023/08/21 05:20:13;;;;;;;17.92;7.30;;;16.60;100.00;;;;;;5017938;28;20049;-76
2023/08/21 05:22:41;;;;;;;19.30;7.03;;;16.70;100.00;;;;;;5026151;28;20052;-73
2023/08/21 05:25:08;;;;;;;16.17;7.35;;;16.70;100.00;;;;;;5029887;28;20075;-74
2023/08/21 05:27:35;;;;;;;19.55;6.88;;;16.70;100.00;;;;;;5022372;28;20060;-75
2023/08/21 05:30:03;;;;;;;20.58;7.90;;;16.80;100.00;;;;;;5029258;28;20140;-72
2023/08/21 05:32:30;;;;;;;25.30;7.40;;;16.80;100.00;;;;;;5019584;28;20085;-75
2023/08/21 05:34:57;;;;;;;23.58;7.60;;;16.90;99.60;;;;;;5049947;28;20052;-74
2023/08/21 05:37:25;;;;;;;15.63;7.18;;;17.00;99.70;;;;;;5022943;28;20100;-74
2023/08/21 05:39:52;;;;;;;27.00;7.53;;;17.00;99.40;;;;;;5023369;28;20049;-74
2023/08/21 05:42:19;;;;;;;24.95;7.30;;;17.10;99.40;;;;;;5027701;28;20180;-75
2023/08/21 05:44:46;;;;;;;22.75;7.38;;;17.10;99.30;;;;;;5025412;28;20053;-74
2023/08/21 05:47:12;;;;;;;14.30;6.60;;;17.20;99.20;;;;;;5027667;28;21022;-74
2023/08/21 05:49:39;;;;;;;15.60;7.03;;;17.30;98.80;;;;;;5018761;28;20170;-74
2023/08/21 05:52:06;;;;;;;15.57;7.88;;;17.30;98.60;;;;;;5021660;28;20126;-74
2023/08/21 05:54:33;;;;;;;23.75;6.35;;;17.40;98.30;;;;;;5042209;28;20151;-74
2023/08/21 05:57:00;;;;;;;17.85;6.97;;;17.50;98.10;;;;;;5034682;28;20055;-74
2023/08/21 05:59:31;;;;;;;15.75;5.88;;;17.70;97.40;;;;;;5033171;28;20057;-74
2023/08/21 06:01:58;;;;;;;15.60;7.50;;;17.90;97.00;;;;;;5022918;28;20046;-74
2023/08/21 06:04:26;;;;;;;20.02;6.25;;;18.10;94.80;;;;;;5026475;28;20580;-73
2023/08/21 06:06:54;;;;;;;13.82;5.28;;;18.20;93.90;;;;;;5015045;28;20565;-74
2023/08/21 06:09:21;;;;;;;20.00;5.45;;;18.30;92.50;;;;;;5015945;28;20049;-74
2023/08/21 06:11:48;;;;;;;15.50;4.55;;;18.40;92.00;;;;;;5025699;28;20049;-74
2023/08/21 06:14:14;;;;;;;13.63;6.28;;;18.60;91.10;;;;;;5028845;28;20049;-74
2023/08/21 06:16:43;;;;;;;13.88;4.93;;;18.70;90.00;;;;;;5035808;28;20063;-74
2023/08/21 06:19:10;;;;;;;12.40;4.78;;;18.90;90.30;;;;;;5032315;28;20045;-74
2023/08/21 06:21:37;;;;;;;32.95;4.95;;;19.00;88.20;;;;;;5016349;28;20042;-74
2023/08/21 06:24:04;;;;;;;18.33;4.60;;;19.20;88.60;;;;;;5020384;28;20055;-74
2023/08/21 06:26:31;;;;;;;14.40;4.55;;;19.40;86.30;;;;;;5030510;28;20104;-74
2023/08/21 06:28:58;;;;;;;17.10;3.83;;;19.80;86.90;;;;;;5026483;28;20073;-74
2023/08/21 06:31:24;;;;;;;18.52;4.72;;;20.70;84.50;;;;;;5035055;28;20049;-74
2023/08/21 06:33:51;;;;;;;15.05;3.95;;;21.60;80.80;;;;;;5047775;23;20464;-75
2023/08/21 06:36:18;;;;;;;15.55;4.25;;;22.40;77.90;;;;;;5066698;28;20106;-75
2023/08/21 06:38:45;;;;;;;8.55;3.30;;;23.20;75.30;;;;;;5051366;28;20044;-76
2023/08/21 06:41:12;;;;;;;16.30;3.65;;;24.00;73.10;;;;;;5064619;28;20113;-76
2023/08/21 06:43:39;;;;;;;15.73;3.35;;;24.50;70.80;;;;;;5062396;28;20045;-75
2023/08/21 06:46:11;;;;;;;23.17;3.22;;;24.80;70.50;;;;;;5047028;28;20048;-75
2023/08/21 06:48:40;;;;;;;10.55;3.00;;;25.60;68.70;;;;;;5057151;28;20049;-76
2023/08/21 06:51:07;;;;;;;12.02;3.50;;;26.30;66.50;;;;;;5065356;28;20044;-75
2023/08/21 06:53:34;;;;;;;13.93;3.63;;;26.60;64.70;;;;;;5066841;28;20072;-75
2023/08/21 06:56:02;;;;;;;12.13;2.90;;;26.90;63.80;;;;;;5041780;28;20048;-76
2023/08/21 06:58:29;;;;;;;13.27;2.70;;;27.10;63.40;;;;;;5059269;28;20565;-76
2023/08/21 07:00:56;;;;;;;10.88;2.40;;;26.90;64.00;;;;;;5037300;28;20065;-76
2023/08/21 07:03:23;;;;;;;8.68;2.65;;;27.10;63.20;;;;;;5061403;28;20079;-76
2023/08/21 07:06:00;;;;;;;9.85;2.65;;;27.30;63.60;;;;;;5049565;28;20052;-76
2023/08/21 07:08:28;;;;;;;10.75;2.58;;;27.40;62.50;;;;;;5062608;28;20057;-76
2023/08/21 07:10:55;;;;;;;8.32;2.35;;;26.90;64.10;;;;;;5066591;28;20056;-76
2023/08/21 07:13:22;;;;;;;13.30;2.90;;;26.90;64.20;;;;;;5066940;28;20781;-76
2023/08/21 07:15:52;;;;;;;7.10;2.40;;;26.60;63.80;;;;;;5047985;28;20079;-76
2023/08/21 07:18:19;;;;;;;7.30;2.60;;;26.30;66.10;;;;;;5048660;28;20079;-76
2023/08/21 07:20:46;;;;;;;9.98;2.33;;;26.30;65.90;;;;;;5063169;28;20522;-76
2023/08/21 07:23:12;;;;;;;12.07;2.30;;;26.60;65.80;;;;;;5063475;28;20106;-76
2023/08/21 07:25:39;;;;;;;18.65;2.53;;;26.40;64.70;;;;;;5067045;28;20167;-76
2023/08/21 07:28:06;;;;;;;10.75;2.50;;;26.50;64.00;;;;;;5055532;28;20072;-76
2023/08/21 07:30:33;;;;;;;8.73;2.38;;;26.50;63.90;;;;;;5057406;28;20048;-76
2023/08/21 07:33:02;;;;;;;10.77;2.47;;;26.30;63.80;;;;;;5042258;28;20056;-76
2023/08/21 07:35:29;;;;;;;15.38;2.25;;;26.40;63.90;;;;;;5040088;28;20131;-77
2023/08/21 07:37:56;;;;;;;11.35;2.10;;;26.10;64.50;;;;;;5057127;28;20065;-76
2023/08/21 07:40:23;;;;;;;7.55;1.63;;;26.00;63.70;;;;;;5046849;28;20052;-76
2023/08/21 07:42:50;;;;;;;8.95;1.85;;;26.80;62.80;;;;;;5066520;28;20148;-75
2023/08/21 07:45:17;;;;;;;10.88;1.85;;;27.10;61.90;;;;;;5064130;28;20041;-76
2023/08/21 07:47:44;;;;;;;13.23;2.30;;;27.50;59.80;;;;;;5055455;28;20382;-76
2023/08/21 07:50:11;;;;;;;6.72;1.88;;;28.20;59.50;;;;;;5060209;28;20143;-76
2023/08/21 07:52:38;;;;;;;7.13;1.90;;;28.00;59.10;;;;;;5043995;28;20454;-76
2023/08/21 07:55:06;;;;;;;11.77;2.17;;;27.70;58.30;;;;;;5059041;28;20091;-76
2023/08/21 07:57:33;;;;;;;6.88;1.55;;;27.80;60.00;;;;;;5042430;28;20153;-76
2023/08/21 08:00:00;;;;;;;20.20;2.00;;;28.40;58.00;;;;;;5048119;28;20098;-76
2023/08/21 08:02:26;;;;;;;6.70;1.83;;;28.90;57.10;;;;;;5062983;28;20137;-76
2023/08/21 08:04:54;;;;;;;10.88;2.10;;;29.10;57.80;;;;;;5046404;28;20127;-76
2023/08/21 08:07:21;;;;;;;10.23;1.90;;;28.80;57.10;;;;;;5043583;28;20496;-76
2023/08/21 08:09:48;;;;;;;10.43;1.48;;;28.80;56.80;;;;;;5055604;28;20049;-76
2023/08/21 08:12:15;;;;;;;10.15;1.80;;;29.10;55.60;;;;;;5041937;28;20055;-76
2023/08/21 08:14:42;;;;;;;5.53;1.73;;;29.60;56.40;;;;;;5047415;28;20514;-76
2023/08/21 08:17:09;;;;;;;5.05;1.50;;;29.80;56.10;;;;;;5059297;28;20140;-76
2023/08/21 08:19:35;;;;;;;10.27;1.80;;;29.60;55.70;;;;;;5042118;28;20156;-76
2023/08/21 08:22:02;;;;;;;6.60;1.65;;;29.60;55.60;;;;;;5032026;28;20075;-77
2023/08/21 08:24:29;;;;;;;6.78;1.25;;;29.50;54.70;;;;;;5057879;28;20060;-77
2023/08/21 08:26:57;;;;;;;8.75;1.52;;;29.00;55.90;;;;;;5053677;28;20048;-77
2023/08/21 08:29:23;;;;;;;12.95;1.77;;;29.00;56.60;;;;;;5044142;28;20608;-77
2023/08/21 08:31:50;;;;;;;17.50;1.80;;;29.00;57.80;;;;;;5060270;28;20792;-76
2023/08/21 08:34:20;;;;;;;3.72;1.75;;;28.80;55.30;;;;;;5040452;28;20055;-76
2023/08/21 08:36:47;;;;;;;12.95;1.50;;;28.90;54.60;;;;;;5041444;28;20080;-76
2023/08/21 08:39:14;;;;;;;8.18;1.33;;;28.00;56.80;;;;;;5061279;28;20135;-76
2023/08/21 08:41:52;;;;;;;8.50;1.77;;;28.40;57.10;;;;;;5032823;28;20417;-75
2023/08/21 08:44:19;;;;;;;11.90;1.50;;;28.50;55.90;;;;;;5041165;28;20075;-77
2023/08/21 08:46:47;;;;;;;12.18;1.17;;;28.80;55.90;;;;;;5055297;28;20142;-77
2023/08/21 08:49:14;;;;;;;9.32;1.55;;;28.90;55.20;;;;;;5059878;28;20041;-77
2023/08/21 08:51:42;;;;;;;6.47;1.45;;;29.10;53.40;;;;;;5058960;28;20168;-76
2023/08/21 08:54:11;;;;;;;6.43;1.40;;;28.20;52.50;;;;;;5034352;28;20045;-77
2023/08/21 08:56:38;;;;;;;11.18;1.50;;;27.70;54.20;;;;;;5028369;28;20493;-76
2023/08/21 08:59:07;;;;;;;7.97;1.17;;;27.20;57.70;;;;;;5044860;28;20136;-76
2023/08/21 09:01:34;;;;;;;9.45;1.45;;;27.30;57.80;;;;;;5052695;28;20127;-77
2023/08/21 09:04:02;;;;;;;14.40;2.00;;;28.00;57.00;;;;;;5028460;28;20055;-76
2023/08/21 09:06:30;;;;;;;8.63;1.55;;;28.60;55.90;;;;;;5060108;28;20055;-76
2023/08/21 09:08:57;;;;;;;10.10;1.40;;;28.50;54.20;;;;;;5064019;28;20656;-76
2023/08/21 09:11:24;;;;;;;6.60;1.30;;;28.60;55.10;;;;;;5064099;28;20044;-77
2023/08/21 09:13:53;;;;;;;5.13;1.35;;;28.20;54.70;;;;;;5045707;28;20076;-77
2023/08/21 09:16:25;;;;;;;3.95;0.90;;;28.80;53.20;;;;;;5060035;28;20080;-77
2023/08/21 09:18:54;;;;;;;4.80;1.10;;;28.80;52.90;;;;;;5055822;28;20098;-76
2023/08/21 09:21:23;;;;;;;7.53;1.05;;;29.80;52.20;;;;;;5058876;28;20048;-77
2023/08/21 09:24:00;;;;;;;6.97;1.00;;;30.00;50.90;;;;;;5053613;28;20102;-77
2023/08/21 09:26:29;;;;;;;8.63;1.35;;;30.20;51.10;;;;;;5050825;28;20075;-77
2023/08/21 09:29:01;;;;;;;6.10;1.20;;;30.30;49.10;;;;;;5038824;28;20654;-76
2023/08/21 09:31:33;;;;;;;3.92;0.98;;;31.20;49.10;;;;;;5028904;28;20056;-76
2023/08/21 09:34:05;;;;;;;6.75;1.48;;;30.90;47.80;;;;;;5056265;28;20059;-77
2023/08/21 09:36:33;;;;;;;8.45;1.15;;;30.40;48.20;;;;;;5045891;28;20447;-77
2023/08/21 09:39:01;;;;;;;7.72;1.50;;;30.10;49.40;;;;;;5045834;28;20079;-76
2023/08/21 09:41:27;;;;;;;7.20;1.73;;;30.90;49.20;;;;;;5063424;28;20131;-76
2023/08/21 09:44:00;;;;;;;7.97;1.70;;;30.90;49.70;;;;;;5063550;28;20053;-76
2023/08/21 09:46:28;;;;;;;14.05;1.60;;;31.20;48.80;;;;;;5061535;28;20053;-76
2023/08/21 09:48:55;;;;;;;7.15;1.33;;;31.90;47.60;;;;;;5043957;28;20045;-77
2023/08/21 09:51:23;;;;;;;4.88;1.85;;;31.60;46.90;;;;;;5063460;28;20040;-77
2023/08/21 09:53:50;;;;;;;4.68;1.08;;;31.40;47.60;;;;;;5057240;28;20148;-76
2023/08/21 09:56:20;;;;;;;7.82;1.70;;;31.70;47.00;;;;;;5043807;28;20555;-76
2023/08/21 09:58:51;;;;;;;3.03;1.00;;;32.40;46.40;;;;;;5039350;28;20098;-76
2023/08/21 10:01:21;;;;;;;3.40;1.45;;;32.20;42.50;;;;;;5039406;28;20759;-76
2023/08/21 10:03:48;;;;;;;7.50;1.60;;;31.60;47.00;;;;;;5032547;28;20137;-76
2023/08/21 10:06:20;;;;;;;6.63;1.25;;;31.30;47.70;;;;;;5032212;28;20105;-76
2023/08/21 10:08:53;;;;;;;5.75;0.98;;;31.30;46.50;;;;;;5063440;28;20041;-77
2023/08/21 10:11:21;;;;;;;4.13;1.05;;;31.10;47.30;;;;;;5045552;28;20476;-76
2023/08/21 10:13:50;;;;;;;2.20;1.00;;;31.40;47.10;;;;;;5045823;28;20056;-77
2023/08/21 10:16:20;;;;;;;1.80;0.88;;;30.80;44.50;;;;;;5049684;28;20194;-76
2023/08/21 10:18:47;;;;;;;2.33;1.38;;;29.80;48.30;;;;;;5031270;28;20144;-76
2023/08/21 10:21:15;;;;;;;4.65;1.30;;;30.30;47.80;;;;;;5025337;28;20540;-76
2023/08/21 10:23:47;;;;;;;7.32;1.50;;;30.70;46.60;;;;;;5030813;28;20049;-77
2023/08/21 10:26:14;;;;;;;4.95;1.20;;;30.90;47.20;;;;;;5057046;28;20045;-76
2023/08/21 10:28:52;;;;;;;7.57;1.58;;;31.00;46.70;;;;;;5037401;28;20131;-76
2023/08/21 10:31:39;;;;;;;4.30;1.30;;;30.90;45.10;;;;;;5055288;28;20155;-76
2023/08/21 10:34:13;;;;;;;6.60;1.83;;;30.50;46.90;;;;;;5042930;28;20596;-77
2023/08/21 10:37:09;;;;;;;9.23;1.30;;;30.60;47.10;;;;;;5041950;28;20164;-76
2023/08/21 10:39:37;;;;;;;3.95;1.65;;;31.10;45.50;;;;;;5043419;28;20139;-76
2023/08/21 10:42:15;;;;;;;6.60;1.65;;;30.70;46.30;;;;;;5057951;28;20048;-77
2023/08/21 10:44:41;;;;;;;8.75;2.03;;;30.70;45.70;;;;;;5064316;28;20055;-76
2023/08/21 10:47:37;;;;;;;4.80;1.55;;;30.80;46.00;;;;;;5060753;28;20099;-77
2023/08/21 10:50:07;;;;;;;;;;;31.50;46.10;;;;;;5048271;28;20156;-77
2023/08/21 10:52:44;;;;;;;7.18;1.52;;;32.10;44.80;;;;;;5062890;28;20003;-77
2023/08/21 10:55:13;;;;;;;5.38;1.20;;;32.30;44.50;;;;;;5043825;28;20049;-76
2023/08/21 10:57:44;;;;;;;3.35;1.08;;;32.40;42.60;;;;;;5056472;28;20057;-76
2023/08/21 11:00:13;;;;;;;4.30;1.42;;;32.60;44.10;;;;;;5048756;28;20074;-77
2023/08/21 11:02:43;;;;;;;7.68;0.95;;;32.80;42.00;;;;;;5066181;28;20063;-77
2023/08/21 11:05:11;;;;;;;7.18;1.40;;;31.80;43.50;;;;;;5048823;28;20041;-76
2023/08/21 11:07:45;;;;;;;4.57;1.15;;;31.80;43.30;;;;;;5036883;28;20048;-77
2023/08/21 11:10:16;;;;;;;6.07;1.27;;;31.90;41.80;;;;;;5048283;28;20082;-76
2023/08/21 11:12:55;;;;;;;7.78;1.60;;;31.80;44.00;;;;;;5063896;28;20056;-76
2023/08/21 11:15:24;;;;;;;6.07;1.00;;;32.20;42.50;;;;;;5048768;28;20052;-77
2023/08/21 11:17:58;;;;;;;6.75;1.58;;;31.90;41.80;;;;;;5057730;28;20052;-76
2023/08/21 11:20:29;;;;;;;7.57;1.35;;;32.00;43.10;;;;;;5066128;28;20060;-76
2023/08/21 11:23:06;;;;;;;9.20;1.55;;;32.00;42.70;;;;;;5062663;28;20044;-77
2023/08/21 11:25:40;;;;;;;3.85;1.00;;;32.90;42.00;;;;;;5056253;28;20079;-77
2023/08/21 11:28:08;;;;;;;4.05;1.00;;;32.00;42.30;;;;;;5046098;28;20129;-77
2023/08/21 11:30:35;;;;;;;7.28;0.80;;;32.00;41.80;;;;;;5056474;28;20055;-77
2023/08/21 11:33:10;;;;;;;5.63;1.00;;;32.00;43.20;;;;;;5052039;28;20509;-77
2023/08/21 11:35:38;;;;;;;6.78;1.05;;;33.00;41.60;;;;;;5057248;28;20071;-76
2023/08/21 11:38:05;;;;;;;5.40;1.10;;;33.80;40.50;;;;;;5048170;28;20136;-77
2023/08/21 11:40:36;;;;;;;4.43;0.98;;;33.30;40.20;;;;;;5068293;28;20063;-76
2023/08/21 11:43:05;;;;;;;3.97;0.80;;;33.00;40.50;;;;;;5057823;28;20056;-76
2023/08/21 11:45:32;;;;;;;6.32;0.90;;;33.00;41.10;;;;;;5032709;28;20079;-76
2023/08/21 11:48:15;;;;;;;2.92;1.00;;;33.60;41.10;;;;;;5045506;28;20051;-76
2023/08/21 11:50:42;;;;;;;3.75;0.90;;;33.20;38.70;;;;;;5054402;28;20059;-76
2023/08/21 11:53:11;;;;;;;3.13;0.82;;;33.00;41.40;;;;;;5041636;28;20138;-76
2023/08/21 11:55:39;;;;;;;7.38;0.88;;;33.00;41.40;;;;;;5062345;28;20106;-76
2023/08/21 11:58:07;;;;;;;5.50;0.93;;;33.70;40.70;;;;;;5058001;28;20149;-76
2023/08/21 12:00:34;;;;;;;4.75;0.77;;;34.30;37.10;;;;;;5047682;28;20052;-76
2023/08/21 12:03:02;;;;;;;2.65;0.70;;;33.40;40.80;;;;;;5043896;28;20051;-76
2023/08/21 12:05:30;;;;;;;4.57;1.30;;;33.70;39.60;;;;;;5047605;28;20129;-76
2023/08/21 12:07:57;;;;;;;2.72;1.00;;;34.00;39.40;;;;;;5041965;28;20076;-76
2023/08/21 12:10:28;;;;;;;2.53;0.90;;;33.20;40.50;;;;;;5064934;28;20056;-76
2023/08/21 12:12:56;;;;;;;3.22;0.77;;;32.70;40.50;;;;;;5046139;28;20048;-76
2023/08/21 12:15:23;;;;;;;10.52;0.80;;;33.10;41.40;;;;;;5047422;28;20048;-76
2023/08/21 12:17:50;;;;;;;2.65;0.90;;;34.10;40.40;;;;;;5057191;28;20174;-76
2023/08/21 12:20:17;;;;;;;4.05;1.00;;;34.40;39.50;;;;;;5059373;28;20168;-76
2023/08/21 12:22:44;;;;;;;3.00;0.90;;;35.50;39.20;;;;;;5045942;28;20059;-76
2023/08/21 12:25:11;;;;;;;1.33;0.68;;;35.90;38.40;;;;;;5072276;28;20048;-76
2023/08/21 12:27:38;;;;;;;3.70;0.68;;;36.00;37.10;;;;;;5047064;28;20052;-76
2023/08/21 12:30:06;;;;;;;5.38;0.93;;;36.50;38.00;;;;;;5042916;28;20041;-77
2023/08/21 12:32:33;;;;;;;6.47;0.70;;;35.60;38.10;;;;;;5065116;28;20745;-76
2023/08/21 12:35:00;;;;;;;4.53;0.70;;;35.90;34.80;;;;;;5045538;28;20831;-76
2023/08/21 12:37:27;;;;;;;4.03;0.90;;;34.20;38.30;;;;;;5045413;28;20052;-76
2023/08/21 12:39:55;;;;;;;2.80;0.80;;;33.10;39.20;;;;;;5065295;28;20080;-76
2023/08/21 12:42:21;;;;;;;4.57;0.88;;;33.70;39.00;;;;;;5036166;28;20041;-77
2023/08/21 12:44:48;;;;;;;0.80;0.45;;;34.60;38.30;;;;;;5046650;28;20052;-76
2023/08/21 12:47:15;;;;;;;5.25;0.60;;;34.80;38.70;;;;;;5058359;28;20055;-76